sensor_id;sensor_type;location;lat;lon;timestamp;temperature;humidity
17795;DHT22;9021;50.882;4.326;2022-10-26T00:00:29;17.00;99.90
17795;DHT22;9021;50.882;4.326;2022-10-26T00:02:55;17.00;99.90
17795;DHT22;9021;50.882;4.326;2022-10-26T00:05:23;16.90;99.90
17795;DHT22;9021;50.882;4.326;2022-10-26T00:07:49;16.70;99.90
17795;DHT22;9021;50.882;4.326;2022-10-26T00:10:15;16.90;99.90
17795;DHT22;9021;50.882;4.326;2022-10-26T00:12:40;16.90;99.90
17795;DHT22;9021;50.882;4.326;2022-10-26T00:15:07;16.90;99.90
17795;DHT22;9021;50.882;4.326;2022-10-26T00:17:33;16.80;99.90
17795;DHT22;9021;50.882;4.326;2022-10-26T00:19:59;16.60;99.90
17795;DHT22;9021;50.882;4.326;2022-10-26T00:22:26;16.50;99.90
17795;DHT22;9021;50.882;4.326;2022-10-26T00:24:51;16.60;99.90
17795;DHT22;9021;50.882;4.326;2022-10-26T00:27:17;16.70;99.90
17795;DHT22;9021;50.882;4.326;2022-10-26T00:29:43;16.60;99.90
17795;DHT22;9021;50.882;4.326;2022-10-26T00:32:08;16.50;99.90
17795;DHT22;9021;50.882;4.326;2022-10-26T00:34:34;16.50;99.90
17795;DHT22;9021;50.882;4.326;2022-10-26T00:37:00;16.50;99.90
17795;DHT22;9021;50.882;4.326;2022-10-26T00:39:25;16.70;99.90
17795;DHT22;9021;50.882;4.326;2022-10-26T00:41:51;16.70;99.90
17795;DHT22;9021;50.882;4.326;2022-10-26T00:47:32;16.90;99.90
17795;DHT22;9021;50.882;4.326;2022-10-26T00:53:00;16.90;99.90
17795;DHT22;9021;50.882;4.326;2022-10-26T00:55:31;16.90;99.90
17795;DHT22;9021;50.882;4.326;2022-10-26T00:57:58;17.00;99.90
17795;DHT22;9021;50.882;4.326;2022-10-26T01:00:24;16.90;99.90
17795;DHT22;9021;50.882;4.326;2022-10-26T01:02:51;16.90;99.90
17795;DHT22;9021;50.882;4.326;2022-10-26T01:05:19;16.80;99.90
17795;DHT22;9021;50.882;4.326;2022-10-26T01:07:46;16.80;99.90
17795;DHT22;9021;50.882;4.326;2022-10-26T01:10:13;16.70;99.90
17795;DHT22;9021;50.882;4.326;2022-10-26T01:12:39;16.70;99.90
17795;DHT22;9021;50.882;4.326;2022-10-26T01:15:05;16.60;99.90
17795;DHT22;9021;50.882;4.326;2022-10-26T01:20:42;16.80;99.90
17795;DHT22;9021;50.882;4.326;2022-10-26T01:23:33;16.90;99.90
17795;DHT22;9021;50.882;4.326;2022-10-26T01:26:14;16.80;99.90
17795;DHT22;9021;50.882;4.326;2022-10-26T01:29:09;16.80;99.90
17795;DHT22;9021;50.882;4.326;2022-10-26T01:32:50;17.00;99.90
17795;DHT22;9021;50.882;4.326;2022-10-26T01:34:54;17.00;99.90
17795;DHT22;9021;50.882;4.326;2022-10-26T01:37:28;16.90;99.90
17795;DHT22;9021;50.882;4.326;2022-10-26T01:40:01;16.90;99.90
17795;DHT22;9021;50.882;4.326;2022-10-26T01:42:30;17.00;99.90
17795;DHT22;9021;50.882;4.326;2022-10-26T01:45:00;16.90;99.90
17795;DHT22;9021;50.882;4.326;2022-10-26T01:47:29;16.90;99.90
17795;DHT22;9021;50.882;4.326;2022-10-26T01:49:58;16.80;99.90
17795;DHT22;9021;50.882;4.326;2022-10-26T01:52:25;16.80;99.90
17795;DHT22;9021;50.882;4.326;2022-10-26T01:55:02;16.80;99.90
17795;DHT22;9021;50.882;4.326;2022-10-26T01:57:32;16.90;99.90
17795;DHT22;9021;50.882;4.326;2022-10-26T02:00:09;17.00;99.90
17795;DHT22;9021;50.882;4.326;2022-10-26T02:08:07;17.20;99.90
17795;DHT22;9021;50.882;4.326;2022-10-26T02:13:47;17.00;99.90
17795;DHT22;9021;50.882;4.326;2022-10-26T02:16:24;17.10;99.90
17795;DHT22;9021;50.882;4.326;2022-10-26T02:21:27;17.50;99.90
17795;DHT22;9021;50.882;4.326;2022-10-26T02:23:55;17.40;99.90
17795;DHT22;9021;50.882;4.326;2022-10-26T02:26:25;17.30;99.90
17795;DHT22;9021;50.882;4.326;2022-10-26T02:28:55;17.20;99.90
17795;DHT22;9021;50.882;4.326;2022-10-26T02:31:24;17.30;99.90
17795;DHT22;9021;50.882;4.326;2022-10-26T02:33:51;17.40;99.90
17795;DHT22;9021;50.882;4.326;2022-10-26T02:36:24;17.50;99.90
17795;DHT22;9021;50.882;4.326;2022-10-26T02:38:53;17.60;99.90
17795;DHT22;9021;50.882;4.326;2022-10-26T02:41:20;17.60;99.90
17795;DHT22;9021;50.882;4.326;2022-10-26T02:43:53;17.50;99.90
17795;DHT22;9021;50.882;4.326;2022-10-26T02:46:22;17.60;99.90
17795;DHT22;9021;50.882;4.326;2022-10-26T02:48:49;17.50;99.90
17795;DHT22;9021;50.882;4.326;2022-10-26T02:51:33;17.40;99.90
17795;DHT22;9021;50.882;4.326;2022-10-26T02:54:08;17.40;99.90
17795;DHT22;9021;50.882;4.326;2022-10-26T02:56:41;17.40;99.90
17795;DHT22;9021;50.882;4.326;2022-10-26T02:59:10;17.40;99.90
17795;DHT22;9021;50.882;4.326;2022-10-26T03:01:37;17.40;99.90
17795;DHT22;9021;50.882;4.326;2022-10-26T03:04:03;17.60;99.90
17795;DHT22;9021;50.882;4.326;2022-10-26T03:06:28;17.60;99.90
17795;DHT22;9021;50.882;4.326;2022-10-26T03:08:54;17.60;99.90
17795;DHT22;9021;50.882;4.326;2022-10-26T03:11:20;17.50;99.90
17795;DHT22;9021;50.882;4.326;2022-10-26T03:13:45;17.60;99.90
17795;DHT22;9021;50.882;4.326;2022-10-26T03:16:11;17.80;99.90
17795;DHT22;9021;50.882;4.326;2022-10-26T03:18:36;17.80;99.90
17795;DHT22;9021;50.882;4.326;2022-10-26T03:21:02;17.60;99.90
17795;DHT22;9021;50.882;4.326;2022-10-26T03:23:28;17.60;99.90
17795;DHT22;9021;50.882;4.326;2022-10-26T03:25:57;17.60;99.90
17795;DHT22;9021;50.882;4.326;2022-10-26T03:28:23;17.60;99.90
17795;DHT22;9021;50.882;4.326;2022-10-26T03:30:48;17.70;99.90
17795;DHT22;9021;50.882;4.326;2022-10-26T03:33:14;17.60;99.90
17795;DHT22;9021;50.882;4.326;2022-10-26T03:35:39;17.60;99.90
17795;DHT22;9021;50.882;4.326;2022-10-26T03:38:05;17.70;99.90
17795;DHT22;9021;50.882;4.326;2022-10-26T03:40:31;17.70;99.90
17795;DHT22;9021;50.882;4.326;2022-10-26T03:42:56;17.60;99.90
17795;DHT22;9021;50.882;4.326;2022-10-26T03:45:22;17.60;99.90
17795;DHT22;9021;50.882;4.326;2022-10-26T03:47:48;17.50;99.90
17795;DHT22;9021;50.882;4.326;2022-10-26T03:50:17;17.50;99.90
17795;DHT22;9021;50.882;4.326;2022-10-26T03:52:43;17.40;99.90
17795;DHT22;9021;50.882;4.326;2022-10-26T03:55:09;17.40;99.90
17795;DHT22;9021;50.882;4.326;2022-10-26T03:57:44;17.60;99.90
17795;DHT22;9021;50.882;4.326;2022-10-26T04:00:12;17.60;99.90
17795;DHT22;9021;50.882;4.326;2022-10-26T04:02:40;17.70;99.90
17795;DHT22;9021;50.882;4.326;2022-10-26T04:05:06;17.50;99.90
17795;DHT22;9021;50.882;4.326;2022-10-26T04:07:32;17.40;99.90
17795;DHT22;9021;50.882;4.326;2022-10-26T04:09:58;17.30;99.90
17795;DHT22;9021;50.882;4.326;2022-10-26T04:12:23;17.30;99.90
17795;DHT22;9021;50.882;4.326;2022-10-26T04:14:51;17.30;99.90
17795;DHT22;9021;50.882;4.326;2022-10-26T04:17:17;17.50;99.90
17795;DHT22;9021;50.882;4.326;2022-10-26T04:19:42;17.50;99.90
17795;DHT22;9021;50.882;4.326;2022-10-26T04:22:08;17.30;99.90
17795;DHT22;9021;50.882;4.326;2022-10-26T04:24:34;17.40;99.90
17795;DHT22;9021;50.882;4.326;2022-10-26T04:26:59;17.40;99.90
17795;DHT22;9021;50.882;4.326;2022-10-26T04:29:25;17.50;99.90
17795;DHT22;9021;50.882;4.326;2022-10-26T04:31:51;17.40;99.90
17795;DHT22;9021;50.882;4.326;2022-10-26T04:34:16;17.50;99.90
17795;DHT22;9021;50.882;4.326;2022-10-26T04:36:42;17.30;99.90
17795;DHT22;9021;50.882;4.326;2022-10-26T04:39:07;17.20;99.90
17795;DHT22;9021;50.882;4.326;2022-10-26T04:41:33;17.00;99.90
17795;DHT22;9021;50.882;4.326;2022-10-26T04:43:58;16.90;99.90
17795;DHT22;9021;50.882;4.326;2022-10-26T04:46:24;17.00;99.90
17795;DHT22;9021;50.882;4.326;2022-10-26T04:48:50;17.20;99.90
17795;DHT22;9021;50.882;4.326;2022-10-26T04:51:16;17.30;99.90
17795;DHT22;9021;50.882;4.326;2022-10-26T04:53:41;17.30;99.90
17795;DHT22;9021;50.882;4.326;2022-10-26T04:56:07;17.30;99.90
17795;DHT22;9021;50.882;4.326;2022-10-26T04:58:33;17.40;99.90
17795;DHT22;9021;50.882;4.326;2022-10-26T05:01:00;17.50;99.90
17795;DHT22;9021;50.882;4.326;2022-10-26T05:03:26;17.40;99.90
17795;DHT22;9021;50.882;4.326;2022-10-26T05:05:52;17.30;99.90
17795;DHT22;9021;50.882;4.326;2022-10-26T05:08:18;17.40;99.90
17795;DHT22;9021;50.882;4.326;2022-10-26T05:10:47;17.50;99.90
17795;DHT22;9021;50.882;4.326;2022-10-26T05:13:14;17.70;99.90
17795;DHT22;9021;50.882;4.326;2022-10-26T05:15:39;17.50;99.90
17795;DHT22;9021;50.882;4.326;2022-10-26T05:18:05;17.60;99.90
17795;DHT22;9021;50.882;4.326;2022-10-26T05:20:34;17.60;99.90
17795;DHT22;9021;50.882;4.326;2022-10-26T05:23:05;17.60;99.90
17795;DHT22;9021;50.882;4.326;2022-10-26T05:25:35;17.60;99.90
17795;DHT22;9021;50.882;4.326;2022-10-26T05:28:02;17.60;99.90
17795;DHT22;9021;50.882;4.326;2022-10-26T05:30:29;17.50;99.90
17795;DHT22;9021;50.882;4.326;2022-10-26T05:32:55;17.50;99.90
17795;DHT22;9021;50.882;4.326;2022-10-26T05:35:21;17.40;99.90
17795;DHT22;9021;50.882;4.326;2022-10-26T05:37:49;17.30;99.90
17795;DHT22;9021;50.882;4.326;2022-10-26T05:40:15;17.30;99.90
17795;DHT22;9021;50.882;4.326;2022-10-26T05:42:42;17.20;99.90
17795;DHT22;9021;50.882;4.326;2022-10-26T05:45:08;17.50;99.90
17795;DHT22;9021;50.882;4.326;2022-10-26T05:47:40;17.50;99.90
17795;DHT22;9021;50.882;4.326;2022-10-26T05:50:07;17.50;99.90
17795;DHT22;9021;50.882;4.326;2022-10-26T05:52:43;17.50;99.90
17795;DHT22;9021;50.882;4.326;2022-10-26T05:55:11;17.40;99.90
17795;DHT22;9021;50.882;4.326;2022-10-26T05:57:37;17.40;99.90
17795;DHT22;9021;50.882;4.326;2022-10-26T06:00:07;17.50;99.90
17795;DHT22;9021;50.882;4.326;2022-10-26T06:05:20;17.30;99.90
17795;DHT22;9021;50.882;4.326;2022-10-26T06:07:47;17.10;99.90
17795;DHT22;9021;50.882;4.326;2022-10-26T06:10:13;17.20;99.90
17795;DHT22;9021;50.882;4.326;2022-10-26T06:12:39;17.20;99.90
17795;DHT22;9021;50.882;4.326;2022-10-26T06:15:05;17.10;99.90
17795;DHT22;9021;50.882;4.326;2022-10-26T06:17:58;17.10;99.90
17795;DHT22;9021;50.882;4.326;2022-10-26T06:26:24;17.10;99.90
17795;DHT22;9021;50.882;4.326;2022-10-26T06:29:09;17.10;99.90
17795;DHT22;9021;50.882;4.326;2022-10-26T06:31:38;16.90;99.90
17795;DHT22;9021;50.882;4.326;2022-10-26T06:34:04;16.90;99.90
17795;DHT22;9021;50.882;4.326;2022-10-26T06:36:30;17.10;99.90
17795;DHT22;9021;50.882;4.326;2022-10-26T06:39:02;17.20;99.90
17795;DHT22;9021;50.882;4.326;2022-10-26T06:41:33;17.20;99.90
17795;DHT22;9021;50.882;4.326;2022-10-26T06:43:59;17.30;99.90
17795;DHT22;9021;50.882;4.326;2022-10-26T06:51:45;17.10;99.90
17795;DHT22;9021;50.882;4.326;2022-10-26T06:56:43;17.40;99.90
17795;DHT22;9021;50.882;4.326;2022-10-26T06:59:16;17.30;99.90
17795;DHT22;9021;50.882;4.326;2022-10-26T07:01:46;17.40;99.90
17795;DHT22;9021;50.882;4.326;2022-10-26T07:04:12;17.40;99.90
17795;DHT22;9021;50.882;4.326;2022-10-26T07:06:37;17.30;99.90
17795;DHT22;9021;50.882;4.326;2022-10-26T07:09:03;17.40;99.90
17795;DHT22;9021;50.882;4.326;2022-10-26T07:11:29;17.60;99.90
17795;DHT22;9021;50.882;4.326;2022-10-26T07:13:54;18.00;99.90
17795;DHT22;9021;50.882;4.326;2022-10-26T07:16:20;18.30;99.90
17795;DHT22;9021;50.882;4.326;2022-10-26T07:18:47;18.50;99.90
17795;DHT22;9021;50.882;4.326;2022-10-26T07:21:13;18.60;99.90
17795;DHT22;9021;50.882;4.326;2022-10-26T07:23:38;18.70;99.90
17795;DHT22;9021;50.882;4.326;2022-10-26T07:26:04;18.80;99.90
17795;DHT22;9021;50.882;4.326;2022-10-26T07:28:30;18.90;99.90
17795;DHT22;9021;50.882;4.326;2022-10-26T07:30:57;19.10;99.90
17795;DHT22;9021;50.882;4.326;2022-10-26T07:33:23;19.60;99.90
17795;DHT22;9021;50.882;4.326;2022-10-26T07:35:48;20.10;99.90
17795;DHT22;9021;50.882;4.326;2022-10-26T07:38:14;20.60;99.90
17795;DHT22;9021;50.882;4.326;2022-10-26T07:40:39;21.10;99.90
17795;DHT22;9021;50.882;4.326;2022-10-26T07:43:05;21.40;99.90
17795;DHT22;9021;50.882;4.326;2022-10-26T07:45:31;21.80;99.90
17795;DHT22;9021;50.882;4.326;2022-10-26T07:47:56;21.90;99.90
17795;DHT22;9021;50.882;4.326;2022-10-26T07:50:22;21.70;99.90
17795;DHT22;9021;50.882;4.326;2022-10-26T07:52:48;21.80;99.90
17795;DHT22;9021;50.882;4.326;2022-10-26T07:55:14;21.90;99.80
17795;DHT22;9021;50.882;4.326;2022-10-26T07:57:39;21.90;99.70
17795;DHT22;9021;50.882;4.326;2022-10-26T08:00:06;21.80;99.80
17795;DHT22;9021;50.882;4.326;2022-10-26T08:02:33;21.60;99.90
17795;DHT22;9021;50.882;4.326;2022-10-26T08:04:59;21.40;99.90
17795;DHT22;9021;50.882;4.326;2022-10-26T08:07:24;21.30;99.90
17795;DHT22;9021;50.882;4.326;2022-10-26T08:09:50;20.80;99.90
17795;DHT22;9021;50.882;4.326;2022-10-26T08:12:16;20.70;99.90
17795;DHT22;9021;50.882;4.326;2022-10-26T08:14:42;20.80;99.90
17795;DHT22;9021;50.882;4.326;2022-10-26T08:17:08;20.90;99.90
17795;DHT22;9021;50.882;4.326;2022-10-26T08:19:34;21.20;99.90
17795;DHT22;9021;50.882;4.326;2022-10-26T08:21:59;21.40;99.90
17795;DHT22;9021;50.882;4.326;2022-10-26T08:24:25;21.70;99.90
17795;DHT22;9021;50.882;4.326;2022-10-26T08:26:50;21.80;99.90
17795;DHT22;9021;50.882;4.326;2022-10-26T08:29:16;22.10;99.90
17795;DHT22;9021;50.882;4.326;2022-10-26T08:31:42;22.40;99.70
17795;DHT22;9021;50.882;4.326;2022-10-26T08:34:07;22.60;99.40
17795;DHT22;9021;50.882;4.326;2022-10-26T08:36:33;22.30;99.70
17795;DHT22;9021;50.882;4.326;2022-10-26T08:38:59;21.70;99.90
17795;DHT22;9021;50.882;4.326;2022-10-26T08:41:41;21.80;99.90
17795;DHT22;9021;50.882;4.326;2022-10-26T08:44:33;21.70;99.90
17795;DHT22;9021;50.882;4.326;2022-10-26T08:47:13;21.60;99.90
17795;DHT22;9021;50.882;4.326;2022-10-26T08:50:01;21.50;99.90
17795;DHT22;9021;50.882;4.326;2022-10-26T08:52:35;21.50;99.90
17795;DHT22;9021;50.882;4.326;2022-10-26T08:55:03;21.30;99.90
17795;DHT22;9021;50.882;4.326;2022-10-26T08:57:38;21.00;99.90
17795;DHT22;9021;50.882;4.326;2022-10-26T09:00:17;20.90;99.90
17795;DHT22;9021;50.882;4.326;2022-10-26T09:02:43;21.00;99.90
17795;DHT22;9021;50.882;4.326;2022-10-26T09:05:18;21.30;99.90
17795;DHT22;9021;50.882;4.326;2022-10-26T09:08:05;21.30;99.90
17795;DHT22;9021;50.882;4.326;2022-10-26T09:10:49;21.60;99.90
17795;DHT22;9021;50.882;4.326;2022-10-26T09:13:27;21.70;99.90
17795;DHT22;9021;50.882;4.326;2022-10-26T09:16:21;21.50;99.90
17795;DHT22;9021;50.882;4.326;2022-10-26T09:22:06;21.30;99.90
17795;DHT22;9021;50.882;4.326;2022-10-26T09:24:38;21.60;99.90
17795;DHT22;9021;50.882;4.326;2022-10-26T09:27:28;21.90;99.90
17795;DHT22;9021;50.882;4.326;2022-10-26T09:29:55;22.20;99.90
17795;DHT22;9021;50.882;4.326;2022-10-26T09:32:25;22.30;99.90
17795;DHT22;9021;50.882;4.326;2022-10-26T09:35:03;22.10;99.90
17795;DHT22;9021;50.882;4.326;2022-10-26T09:37:39;22.40;99.90
17795;DHT22;9021;50.882;4.326;2022-10-26T09:40:11;22.80;99.90
17795;DHT22;9021;50.882;4.326;2022-10-26T09:42:56;22.90;99.90
17795;DHT22;9021;50.882;4.326;2022-10-26T09:45:37;22.90;99.90
17795;DHT22;9021;50.882;4.326;2022-10-26T09:48:19;22.90;99.90
17795;DHT22;9021;50.882;4.326;2022-10-26T09:50:48;22.70;99.90
17795;DHT22;9021;50.882;4.326;2022-10-26T09:53:14;22.60;99.90
17795;DHT22;9021;50.882;4.326;2022-10-26T09:55:42;22.30;99.90
17795;DHT22;9021;50.882;4.326;2022-10-26T09:58:28;22.40;99.90
17795;DHT22;9021;50.882;4.326;2022-10-26T10:00:54;22.50;99.90
17795;DHT22;9021;50.882;4.326;2022-10-26T10:03:28;22.70;99.90
17795;DHT22;9021;50.882;4.326;2022-10-26T10:06:18;23.00;99.40
17795;DHT22;9021;50.882;4.326;2022-10-26T10:09:24;23.30;99.10
17795;DHT22;9021;50.882;4.326;2022-10-26T10:11:57;23.60;98.60
17795;DHT22;9021;50.882;4.326;2022-10-26T10:14:28;23.60;98.40
17795;DHT22;9021;50.882;4.326;2022-10-26T10:16:56;23.60;98.40
17795;DHT22;9021;50.882;4.326;2022-10-26T10:19:25;23.80;98.00
17795;DHT22;9021;50.882;4.326;2022-10-26T10:21:53;24.10;97.70
17795;DHT22;9021;50.882;4.326;2022-10-26T10:24:34;24.30;97.30
17795;DHT22;9021;50.882;4.326;2022-10-26T10:27:14;24.70;97.00
17795;DHT22;9021;50.882;4.326;2022-10-26T10:29:43;25.10;96.50
17795;DHT22;9021;50.882;4.326;2022-10-26T10:32:20;25.70;95.90
17795;DHT22;9021;50.882;4.326;2022-10-26T10:34:47;25.60;95.80
17795;DHT22;9021;50.882;4.326;2022-10-26T10:37:38;26.00;95.30
17795;DHT22;9021;50.882;4.326;2022-10-26T10:40:18;26.30;94.70
17795;DHT22;9021;50.882;4.326;2022-10-26T10:42:46;26.50;94.40
17795;DHT22;9021;50.882;4.326;2022-10-26T10:45:20;26.00;94.30
17795;DHT22;9021;50.882;4.326;2022-10-26T10:48:11;25.70;94.40
17795;DHT22;9021;50.882;4.326;2022-10-26T10:51:01;25.30;95.00
17795;DHT22;9021;50.882;4.326;2022-10-26T10:53:35;25.40;95.20
17795;DHT22;9021;50.882;4.326;2022-10-26T10:56:22;25.30;95.10
17795;DHT22;9021;50.882;4.326;2022-10-26T10:59:18;25.30;95.10
17795;DHT22;9021;50.882;4.326;2022-10-26T11:01:49;25.60;95.20
17795;DHT22;9021;50.882;4.326;2022-10-26T11:07:06;25.50;95.00
17795;DHT22;9021;50.882;4.326;2022-10-26T11:09:38;25.20;95.40
17795;DHT22;9021;50.882;4.326;2022-10-26T11:14:36;25.30;95.50
17795;DHT22;9021;50.882;4.326;2022-10-26T11:17:19;25.30;95.20
17795;DHT22;9021;50.882;4.326;2022-10-26T11:22:39;25.60;94.80
17795;DHT22;9021;50.882;4.326;2022-10-26T11:25:15;26.00;94.40
17795;DHT22;9021;50.882;4.326;2022-10-26T11:30:54;26.80;93.50
17795;DHT22;9021;50.882;4.326;2022-10-26T11:33:25;27.50;93.20
17795;DHT22;9021;50.882;4.326;2022-10-26T11:36:07;28.40;92.60
17795;DHT22;9021;50.882;4.326;2022-10-26T11:41:28;28.60;91.80
17795;DHT22;9021;50.882;4.326;2022-10-26T11:44:28;28.90;91.30
17795;DHT22;9021;50.882;4.326;2022-10-26T11:47:01;29.40;90.90
17795;DHT22;9021;50.882;4.326;2022-10-26T11:49:48;29.90;90.40
17795;DHT22;9021;50.882;4.326;2022-10-26T11:54:57;30.00;89.90
17795;DHT22;9021;50.882;4.326;2022-10-26T11:57:26;30.40;89.40
17795;DHT22;9021;50.882;4.326;2022-10-26T12:00:20;30.10;89.30
17795;DHT22;9021;50.882;4.326;2022-10-26T12:02:49;30.00;89.10
17795;DHT22;9021;50.882;4.326;2022-10-26T12:05:18;29.50;89.70
17795;DHT22;9021;50.882;4.326;2022-10-26T12:07:53;29.70;89.70
17795;DHT22;9021;50.882;4.326;2022-10-26T12:10:27;30.00;88.90
17795;DHT22;9021;50.882;4.326;2022-10-26T12:18:56;30.20;88.70
17795;DHT22;9021;50.882;4.326;2022-10-26T12:21:28;29.90;88.60
17795;DHT22;9021;50.882;4.326;2022-10-26T12:24:23;30.50;88.00
17795;DHT22;9021;50.882;4.326;2022-10-26T12:26:50;30.70;87.50
17795;DHT22;9021;50.882;4.326;2022-10-26T12:29:31;31.30;86.40
17795;DHT22;9021;50.882;4.326;2022-10-26T12:32:02;31.50;85.50
17795;DHT22;9021;50.882;4.326;2022-10-26T12:39:33;30.90;85.60
17795;DHT22;9021;50.882;4.326;2022-10-26T12:44:38;30.80;85.80
17795;DHT22;9021;50.882;4.326;2022-10-26T12:47:06;30.80;85.90
17795;DHT22;9021;50.882;4.326;2022-10-26T12:52:48;30.60;85.80
17795;DHT22;9021;50.882;4.326;2022-10-26T13:03:45;28.40;89.10
17795;DHT22;9021;50.882;4.326;2022-10-26T13:09:21;28.80;89.20
17795;DHT22;9021;50.882;4.326;2022-10-26T13:11:50;28.40;89.50
17795;DHT22;9021;50.882;4.326;2022-10-26T13:14:24;28.40;89.60
17795;DHT22;9021;50.882;4.326;2022-10-26T13:16:51;28.40;89.20
17795;DHT22;9021;50.882;4.326;2022-10-26T13:19:29;28.70;89.10
17795;DHT22;9021;50.882;4.326;2022-10-26T13:21:57;29.00;88.10
17795;DHT22;9021;50.882;4.326;2022-10-26T13:24:25;29.00;88.40
17795;DHT22;9021;50.882;4.326;2022-10-26T13:29:30;27.90;90.20
17795;DHT22;9021;50.882;4.326;2022-10-26T13:31:57;27.60;90.20
17795;DHT22;9021;50.882;4.326;2022-10-26T13:34:27;27.20;90.50
17795;DHT22;9021;50.882;4.326;2022-10-26T13:39:27;26.80;90.90
17795;DHT22;9021;50.882;4.326;2022-10-26T13:41:55;26.50;91.20
17795;DHT22;9021;50.882;4.326;2022-10-26T13:47:03;26.00;91.70
17795;DHT22;9021;50.882;4.326;2022-10-26T13:49:41;26.10;91.90
17795;DHT22;9021;50.882;4.326;2022-10-26T13:52:27;26.20;91.80
17795;DHT22;9021;50.882;4.326;2022-10-26T13:55:00;25.90;92.00
17795;DHT22;9021;50.882;4.326;2022-10-26T13:57:34;25.80;92.00
17795;DHT22;9021;50.882;4.326;2022-10-26T14:00:08;25.70;92.30
17795;DHT22;9021;50.882;4.326;2022-10-26T14:02:43;25.50;92.60
17795;DHT22;9021;50.882;4.326;2022-10-26T14:05:12;25.30;92.80
17795;DHT22;9021;50.882;4.326;2022-10-26T14:10:19;25.10;93.10
17795;DHT22;9021;50.882;4.326;2022-10-26T14:12:46;25.10;93.20
17795;DHT22;9021;50.882;4.326;2022-10-26T14:15:11;25.20;93.20
17795;DHT22;9021;50.882;4.326;2022-10-26T14:17:38;25.30;93.20
17795;DHT22;9021;50.882;4.326;2022-10-26T14:20:03;24.90;93.40
17795;DHT22;9021;50.882;4.326;2022-10-26T14:22:29;24.50;93.90
17795;DHT22;9021;50.882;4.326;2022-10-26T14:24:58;24.20;94.40
17795;DHT22;9021;50.882;4.326;2022-10-26T14:27:30;24.30;94.70
17795;DHT22;9021;50.882;4.326;2022-10-26T14:29:56;23.80;95.00
17795;DHT22;9021;50.882;4.326;2022-10-26T14:32:30;23.60;95.30
17795;DHT22;9021;50.882;4.326;2022-10-26T14:35:00;23.60;95.40
17795;DHT22;9021;50.882;4.326;2022-10-26T14:37:39;23.50;95.40
17795;DHT22;9021;50.882;4.326;2022-10-26T14:40:15;23.40;95.60
17795;DHT22;9021;50.882;4.326;2022-10-26T14:42:42;23.30;95.80
17795;DHT22;9021;50.882;4.326;2022-10-26T14:45:20;23.40;95.70
17795;DHT22;9021;50.882;4.326;2022-10-26T14:47:48;23.50;95.50
17795;DHT22;9021;50.882;4.326;2022-10-26T14:50:19;23.70;95.40
17795;DHT22;9021;50.882;4.326;2022-10-26T14:52:51;23.90;95.40
17795;DHT22;9021;50.882;4.326;2022-10-26T14:55:18;23.90;95.40
17795;DHT22;9021;50.882;4.326;2022-10-26T14:57:46;24.00;95.30
17795;DHT22;9021;50.882;4.326;2022-10-26T15:00:17;24.00;95.10
17795;DHT22;9021;50.882;4.326;2022-10-26T15:02:45;24.10;95.10
17795;DHT22;9021;50.882;4.326;2022-10-26T15:07:55;24.30;94.90
17795;DHT22;9021;50.882;4.326;2022-10-26T15:13:08;24.00;94.90
17795;DHT22;9021;50.882;4.326;2022-10-26T15:15:34;23.80;95.30
17795;DHT22;9021;50.882;4.326;2022-10-26T15:18:00;23.70;95.30
17795;DHT22;9021;50.882;4.326;2022-10-26T15:20:28;23.80;95.30
17795;DHT22;9021;50.882;4.326;2022-10-26T15:22:58;23.70;95.30
17795;DHT22;9021;50.882;4.326;2022-10-26T15:25:30;23.50;95.70
17795;DHT22;9021;50.882;4.326;2022-10-26T15:28:23;23.50;95.80
17795;DHT22;9021;50.882;4.326;2022-10-26T15:31:23;23.40;95.70
17795;DHT22;9021;50.882;4.326;2022-10-26T15:36:16;23.20;96.00
17795;DHT22;9021;50.882;4.326;2022-10-26T15:38:43;23.10;96.10
17795;DHT22;9021;50.882;4.326;2022-10-26T15:43:49;22.80;96.60
17795;DHT22;9021;50.882;4.326;2022-10-26T15:46:15;22.80;96.60
17795;DHT22;9021;50.882;4.326;2022-10-26T15:48:41;22.80;96.70
17795;DHT22;9021;50.882;4.326;2022-10-26T15:51:10;22.70;96.80
17795;DHT22;9021;50.882;4.326;2022-10-26T15:53:37;22.70;96.80
17795;DHT22;9021;50.882;4.326;2022-10-26T15:56:04;22.50;97.10
17795;DHT22;9021;50.882;4.326;2022-10-26T15:58:35;22.40;97.30
17795;DHT22;9021;50.882;4.326;2022-10-26T16:01:01;22.50;97.30
17795;DHT22;9021;50.882;4.326;2022-10-26T16:03:27;22.50;97.30
17795;DHT22;9021;50.882;4.326;2022-10-26T16:05:58;22.40;97.50
17795;DHT22;9021;50.882;4.326;2022-10-26T16:08:26;22.30;97.70
17795;DHT22;9021;50.882;4.326;2022-10-26T16:10:52;22.30;97.80
17795;DHT22;9021;50.882;4.326;2022-10-26T16:13:18;22.20;97.80
17795;DHT22;9021;50.882;4.326;2022-10-26T16:15:43;22.10;97.90
17795;DHT22;9021;50.882;4.326;2022-10-26T16:18:09;22.10;98.00
17795;DHT22;9021;50.882;4.326;2022-10-26T16:20:35;22.20;97.80
17795;DHT22;9021;50.882;4.326;2022-10-26T16:23:01;22.10;98.00
17795;DHT22;9021;50.882;4.326;2022-10-26T16:25:39;22.30;98.00
17795;DHT22;9021;50.882;4.326;2022-10-26T16:28:04;22.10;97.90
17795;DHT22;9021;50.882;4.326;2022-10-26T16:30:30;22.00;98.20
17795;DHT22;9021;50.882;4.326;2022-10-26T16:32:56;21.90;98.40
17795;DHT22;9021;50.882;4.326;2022-10-26T16:35:22;21.90;98.30
17795;DHT22;9021;50.882;4.326;2022-10-26T16:37:48;21.90;98.20
17795;DHT22;9021;50.882;4.326;2022-10-26T16:40:13;21.90;98.30
17795;DHT22;9021;50.882;4.326;2022-10-26T16:42:39;21.80;98.50
17795;DHT22;9021;50.882;4.326;2022-10-26T16:45:12;21.70;98.50
17795;DHT22;9021;50.882;4.326;2022-10-26T16:47:39;21.60;98.60
17795;DHT22;9021;50.882;4.326;2022-10-26T16:50:06;21.60;98.90
17795;DHT22;9021;50.882;4.326;2022-10-26T16:52:35;21.60;98.70
17795;DHT22;9021;50.882;4.326;2022-10-26T16:55:02;21.50;98.80
17795;DHT22;9021;50.882;4.326;2022-10-26T16:57:28;21.60;98.80
17795;DHT22;9021;50.882;4.326;2022-10-26T16:59:54;21.60;98.80
17795;DHT22;9021;50.882;4.326;2022-10-26T17:02:20;21.50;98.90
17795;DHT22;9021;50.882;4.326;2022-10-26T17:04:45;21.30;99.10
17795;DHT22;9021;50.882;4.326;2022-10-26T17:07:11;21.20;99.30
17795;DHT22;9021;50.882;4.326;2022-10-26T17:09:36;21.20;99.30
17795;DHT22;9021;50.882;4.326;2022-10-26T17:12:02;21.20;99.30
17795;DHT22;9021;50.882;4.326;2022-10-26T17:14:28;21.30;99.30
17795;DHT22;9021;50.882;4.326;2022-10-26T17:16:54;21.10;99.30
17795;DHT22;9021;50.882;4.326;2022-10-26T17:19:19;21.10;99.40
17795;DHT22;9021;50.882;4.326;2022-10-26T17:21:45;21.00;99.60
17795;DHT22;9021;50.882;4.326;2022-10-26T17:24:11;21.10;99.50
17795;DHT22;9021;50.882;4.326;2022-10-26T17:26:38;21.10;99.40
17795;DHT22;9021;50.882;4.326;2022-10-26T17:29:03;21.10;99.50
17795;DHT22;9021;50.882;4.326;2022-10-26T17:31:29;21.10;99.40
17795;DHT22;9021;50.882;4.326;2022-10-26T17:33:55;21.10;99.50
17795;DHT22;9021;50.882;4.326;2022-10-26T17:36:22;21.20;99.40
17795;DHT22;9021;50.882;4.326;2022-10-26T17:38:50;21.20;99.20
17795;DHT22;9021;50.882;4.326;2022-10-26T17:41:18;21.10;99.30
17795;DHT22;9021;50.882;4.326;2022-10-26T17:43:45;21.30;99.10
17795;DHT22;9021;50.882;4.326;2022-10-26T17:46:13;21.20;99.20
17795;DHT22;9021;50.882;4.326;2022-10-26T17:48:39;21.00;99.50